Time;durP1;ratioP1;P1;durP2;ratioP2;P2;SDS_P1;SDS_P2;PMS_P1;PMS_P2;Temp;Humidity;BMP_temperature;BMP_pressure;BME280_temperature;BME280_humidity;BME280_pressure;Samples;Min_cycle;Max_cycle;Signal;HPM_P1;HPM_P2
2022/09/29 00:00:50;;;;;;;4.78;2.67;;;7.60;99.90;;;;;;5045772;28;20024;-56
2022/09/29 00:03:16;;;;;;;6.18;2.80;;;7.60;99.90;;;;;;5050910;28;20029;-56
2022/09/29 00:05:53;;;;;;;21.30;2.58;;;7.50;99.90;;;;;;5049136;28;20476;-55
2022/09/29 00:08:21;;;;;;;3.67;1.85;;;7.60;99.90;;;;;;5044539;28;20024;-55
2022/09/29 00:10:46;;;;;;;20.58;1.73;;;7.50;99.90;;;;;;5048691;28;20020;-55
2022/09/29 00:13:13;;;;;;;1.88;1.20;;;7.50;99.90;;;;;;5051943;28;20504;-56
2022/09/29 00:15:40;;;;;;;1.48;1.00;;;7.50;99.90;;;;;;5048497;28;20499;-56
2022/09/29 00:18:07;;;;;;;1.75;1.23;;;7.50;99.90;;;;;;5049349;28;20065;-56
2022/09/29 00:20:33;;;;;;;3.05;2.15;;;7.50;99.90;;;;;;5056197;28;20094;-56
2022/09/29 00:22:58;;;;;;;7.03;2.50;;;7.50;99.90;;;;;;5048828;28;20109;-55
2022/09/29 00:25:24;;;;;;;5.63;2.72;;;7.50;99.90;;;;;;5050116;28;20020;-56
2022/09/29 00:27:50;;;;;;;3.75;2.47;;;7.50;99.90;;;;;;5062843;28;20017;-56
2022/09/29 00:30:15;;;;;;;2.88;2.33;;;7.50;99.90;;;;;;5045571;28;20071;-56
2022/09/29 00:32:41;;;;;;;4.88;3.60;;;7.50;99.90;;;;;;5042980;28;20493;-56
2022/09/29 00:35:09;;;;;;;7.38;4.10;;;7.50;99.90;;;;;;5051147;28;20036;-56
2022/09/29 00:37:35;;;;;;;7.07;4.53;;;7.40;99.90;;;;;;5043240;28;20036;-57
2022/09/29 00:40:01;;;;;;;6.63;5.05;;;7.40;99.90;;;;;;5050981;28;20029;-56
2022/09/29 00:42:26;;;;;;;6.10;4.90;;;7.30;99.90;;;;;;5053483;28;20397;-55
2022/09/29 00:45:05;;;;;;;8.55;4.38;;;7.30;99.90;;;;;;5048206;28;20032;-56
2022/09/29 00:47:35;;;;;;;6.18;4.85;;;7.30;99.90;;;;;;5050413;28;20478;-56
2022/09/29 00:50:03;;;;;;;;;;;7.30;99.90;;;;;;5045764;28;20025;-56
2022/09/29 00:52:28;;;;;;;5.35;4.53;;;7.20;99.90;;;;;;5036542;28;19956;-57
2022/09/29 00:54:57;;;;;;;5.07;4.32;;;7.20;99.90;;;;;;5042495;28;20056;-54
2022/09/29 00:57:27;;;;;;;4.63;3.28;;;7.20;99.90;;;;;;5048182;28;20024;-54
2022/09/29 01:00:06;;;;;;;3.28;2.92;;;7.30;99.90;;;;;;5045111;28;20470;-53
2022/09/29 01:02:35;;;;;;;2.97;2.60;;;7.30;99.90;;;;;;5048966;28;20021;-56
2022/09/29 01:05:04;;;;;;;2.90;2.57;;;7.40;99.90;;;;;;5048066;28;20021;-56
2022/09/29 01:07:29;;;;;;;2.78;2.35;;;7.40;99.90;;;;;;5044491;28;20018;-56
2022/09/29 01:09:56;;;;;;;3.45;2.60;;;7.40;99.90;;;;;;5049730;28;20077;-56
2022/09/29 01:12:23;;;;;;;4.50;2.80;;;7.40;99.90;;;;;;5042144;28;20032;-57
2022/09/29 01:14:49;;;;;;;3.70;3.22;;;7.40;99.90;;;;;;5059778;28;20033;-54
2022/09/29 01:17:16;;;;;;;7.25;2.60;;;7.50;99.90;;;;;;5055990;28;20178;-56
2022/09/29 01:20:12;;;;;;;12.63;2.55;;;7.50;99.90;;;;;;5047203;28;20116;-56
2022/09/29 01:22:59;;;;;;;7.93;1.85;;;7.40;99.90;;;;;;5045843;28;20023;-55
2022/09/29 01:25:50;;;;;;;6.95;3.10;;;7.40;99.90;;;;;;5049935;28;20545;-56
2022/09/29 01:28:50;;;;;;;9.95;3.13;;;7.30;99.90;;;;;;5047838;28;20040;-55
2022/09/29 01:31:50;;;;;;;3.85;2.30;;;7.20;99.90;;;;;;5046651;28;20045;-55
2022/09/29 01:34:48;;;;;;;1.90;1.70;;;7.20;99.90;;;;;;5035954;28;20021;-54
2022/09/29 01:37:42;;;;;;;2.55;2.03;;;7.10;99.90;;;;;;5031997;28;20071;-55
2022/09/29 01:40:14;;;;;;;3.10;2.42;;;7.20;99.90;;;;;;5041204;28;21440;-55
2022/09/29 01:43:06;;;;;;;2.97;2.00;;;7.20;99.90;;;;;;5044921;28;20131;-56
2022/09/29 01:45:34;;;;;;;2.40;1.85;;;7.20;99.90;;;;;;5043567;28;20033;-55
2022/09/29 01:48:04;;;;;;;3.08;2.13;;;7.10;99.90;;;;;;5050473;28;20527;-56
2022/09/29 01:50:37;;;;;;;2.30;1.95;;;7.20;99.90;;;;;;5049835;28;20029;-53
2022/09/29 01:53:15;;;;;;;8.48;2.00;;;7.20;99.90;;;;;;5043668;28;20021;-54
2022/09/29 01:55:52;;;;;;;46.13;2.53;;;7.20;99.90;;;;;;5044173;28;20067;-57
2022/09/29 01:58:31;;;;;;;3.70;1.25;;;7.10;99.90;;;;;;5046613;28;20112;-56
2022/09/29 02:01:00;;;;;;;1.42;1.00;;;7.10;99.90;;;;;;5046978;28;20461;-55
2022/09/29 02:03:31;;;;;;;1.38;0.98;;;7.00;99.90;;;;;;5038469;28;20040;-56
2022/09/29 02:06:05;;;;;;;2.00;1.27;;;7.00;99.90;;;;;;5045877;28;20044;-56
2022/09/29 02:08:37;;;;;;;1.90;1.33;;;7.10;99.90;;;;;;5061863;28;20116;-56
2022/09/29 02:11:05;;;;;;;2.33;1.60;;;7.10;99.90;;;;;;5045963;28;20029;-56
2022/09/29 02:13:44;;;;;;;5.68;1.42;;;7.10;99.90;;;;;;5046850;28;20029;-55
2022/09/29 02:16:13;;;;;;;3.80;1.70;;;7.00;99.90;;;;;;5047433;28;20097;-56
2022/09/29 02:18:54;;;;;;;2.50;1.70;;;7.00;99.90;;;;;;5041871;28;20029;-56
2022/09/29 02:21:22;;;;;;;2.38;1.95;;;7.00;99.90;;;;;;5045540;28;20040;-56
2022/09/29 02:23:48;;;;;;;3.58;3.00;;;7.00;99.90;;;;;;5043655;28;20017;-55
2022/09/29 02:26:15;;;;;;;5.13;3.53;;;6.90;99.90;;;;;;5045952;28;20013;-55
2022/09/29 02:28:41;;;;;;;10.38;2.95;;;6.90;99.90;;;;;;5047208;28;20112;-56
2022/09/29 02:31:07;;;;;;;11.30;3.10;;;6.80;99.90;;;;;;5048902;28;20052;-54
2022/09/29 02:33:33;;;;;;;12.30;2.72;;;6.80;99.90;;;;;;5048716;28;20512;-55
2022/09/29 02:36:17;;;;;;;6.90;3.63;;;6.70;99.90;;;;;;5047180;28;20112;-56
2022/09/29 02:38:59;;;;;;;6.60;5.28;;;6.70;99.90;;;;;;5046394;28;20024;-56
2022/09/29 02:41:41;;;;;;;6.13;4.97;;;6.70;99.90;;;;;;5046008;28;20041;-55
2022/09/29 02:44:21;;;;;;;6.10;4.45;;;6.70;99.90;;;;;;5044694;28;20465;-56
2022/09/29 02:47:10;;;;;;;4.47;3.85;;;6.70;99.90;;;;;;5048852;28;20021;-55
2022/09/29 02:49:46;;;;;;;7.22;5.28;;;6.60;99.90;;;;;;5046092;28;20021;-55
2022/09/29 02:52:23;;;;;;;5.82;5.22;;;6.60;99.90;;;;;;5045791;28;20021;-56
2022/09/29 02:55:18;;;;;;;6.90;5.60;;;6.60;99.90;;;;;;5047697;28;20029;-56
2022/09/29 02:57:57;;;;;;;6.88;5.28;;;6.60;99.90;;;;;;5043654;28;20473;-55
2022/09/29 03:00:25;;;;;;;6.10;5.47;;;6.60;99.90;;;;;;5047266;28;20132;-55
2022/09/29 03:02:50;;;;;;;8.35;5.80;;;6.60;99.90;;;;;;5046111;28;20051;-56
2022/09/29 03:05:21;;;;;;;7.03;5.00;;;6.60;99.90;;;;;;5045962;28;20092;-55
2022/09/29 03:07:47;;;;;;;7.60;5.13;;;6.60;99.90;;;;;;5048453;28;20074;-56
2022/09/29 03:10:14;;;;;;;6.82;5.60;;;6.60;99.90;;;;;;5057806;28;20029;-56
2022/09/29 03:12:39;;;;;;;7.65;5.97;;;6.60;99.90;;;;;;5048932;28;20100;-56
2022/09/29 03:15:06;;;;;;;6.65;5.88;;;6.60;99.90;;;;;;5045714;28;20048;-56
2022/09/29 03:17:32;;;;;;;7.55;5.45;;;6.60;99.90;;;;;;5059311;28;20036;-54
2022/09/29 03:19:58;;;;;;;7.53;6.07;;;6.60;99.90;;;;;;5055395;28;20054;-55
2022/09/29 03:22:24;;;;;;;7.10;5.85;;;6.60;99.90;;;;;;5038462;28;20017;-54
2022/09/29 03:24:49;;;;;;;6.45;5.10;;;6.60;99.90;;;;;;5041760;28;20607;-54
2022/09/29 03:27:15;;;;;;;7.28;4.50;;;6.60;99.90;;;;;;5042920;28;20021;-54
2022/09/29 03:29:41;;;;;;;4.43;3.97;;;6.60;99.90;;;;;;5056790;28;20075;-55
2022/09/29 03:32:06;;;;;;;3.78;3.10;;;6.60;99.90;;;;;;5044365;28;20052;-56
2022/09/29 03:34:32;;;;;;;5.22;3.95;;;6.60;99.90;;;;;;5058872;28;20136;-57
2022/09/29 03:36:58;;;;;;;3.83;3.42;;;6.60;99.90;;;;;;5043735;28;20028;-54
2022/09/29 03:39:24;;;;;;;4.78;3.58;;;6.60;99.90;;;;;;5045774;28;20424;-54
2022/09/29 03:41:50;;;;;;;6.38;5.30;;;6.60;99.90;;;;;;5043335;28;20497;-57
2022/09/29 03:44:16;;;;;;;6.43;5.25;;;6.60;99.90;;;;;;5054990;28;20028;-54
2022/09/29 03:46:42;;;;;;;7.45;6.20;;;6.50;99.90;;;;;;5059259;28;20441;-54
2022/09/29 03:49:11;;;;;;;6.13;5.53;;;6.50;99.90;;;;;;5043453;28;20074;-55
2022/09/29 03:51:37;;;;;;;8.27;6.97;;;6.50;99.90;;;;;;5060580;28;20021;-53
2022/09/29 03:54:04;;;;;;;7.93;6.80;;;6.40;99.90;;;;;;5060112;28;20060;-55
2022/09/29 03:56:30;;;;;;;7.75;6.32;;;6.40;99.90;;;;;;5045121;28;20052;-56
2022/09/29 03:58:56;;;;;;;8.18;7.38;;;6.40;99.90;;;;;;5059010;28;20104;-57
2022/09/29 04:01:22;;;;;;;7.85;6.72;;;6.40;99.90;;;;;;5056641;28;20024;-56
2022/09/29 04:03:47;;;;;;;9.32;7.90;;;6.40;99.90;;;;;;5041989;28;20030;-56
2022/09/29 04:06:13;;;;;;;10.15;7.85;;;6.40;99.90;;;;;;5048099;28;20040;-55
2022/09/29 04:08:39;;;;;;;12.57;9.10;;;6.30;99.90;;;;;;5063100;28;20053;-54
2022/09/29 04:11:05;;;;;;;9.57;8.43;;;6.30;99.90;;;;;;5048929;28;20481;-54
2022/09/29 04:13:31;;;;;;;10.80;8.15;;;6.30;99.90;;;;;;5050008;28;20036;-55
2022/09/29 04:16:02;;;;;;;9.20;8.23;;;6.20;99.90;;;;;;5042641;28;20036;-53
2022/09/29 04:18:28;;;;;;;11.43;8.20;;;6.20;99.90;;;;;;5048907;28;20029;-53
2022/09/29 04:20:59;;;;;;;10.32;7.40;;;6.10;99.90;;;;;;5055807;28;20021;-57
2022/09/29 04:23:29;;;;;;;9.85;7.15;;;6.00;99.90;;;;;;5046459;28;20021;-55
2022/09/29 04:25:56;;;;;;;9.52;6.78;;;6.00;99.90;;;;;;5044741;28;20047;-54
2022/09/29 04:28:22;;;;;;;8.50;7.70;;;6.00;99.90;;;;;;5050777;28;20107;-53
2022/09/29 04:30:47;;;;;;;7.97;7.07;;;6.00;99.90;;;;;;5049495;28;20485;-55
2022/09/29 04:33:13;;;;;;;7.97;6.82;;;5.90;99.90;;;;;;5051231;28;20103;-55
2022/09/29 04:35:38;;;;;;;9.57;8.50;;;6.00;99.90;;;;;;5049365;28;20032;-56
2022/09/29 04:38:04;;;;;;;8.75;7.85;;;5.90;99.90;;;;;;5048692;28;20022;-56
2022/09/29 04:40:30;;;;;;;12.43;8.85;;;5.90;99.90;;;;;;5051138;28;20075;-53
2022/09/29 04:42:55;;;;;;;8.68;7.03;;;5.90;99.90;;;;;;5058696;28;20048;-54
2022/09/29 04:45:21;;;;;;;8.00;6.70;;;5.80;99.90;;;;;;5048495;28;20025;-55
2022/09/29 04:47:47;;;;;;;8.20;7.05;;;5.90;99.90;;;;;;5049668;28;20028;-56
2022/09/29 04:50:12;;;;;;;7.72;6.93;;;5.90;99.90;;;;;;5048056;28;20040;-56
2022/09/29 04:52:42;;;;;;;7.78;6.97;;;5.90;99.90;;;;;;5063447;28;20032;-55
2022/09/29 04:55:10;;;;;;;8.50;7.03;;;5.90;99.90;;;;;;5047974;28;20049;-55
2022/09/29 04:57:36;;;;;;;9.38;8.32;;;5.90;99.90;;;;;;5043435;28;20025;-56
2022/09/29 05:00:03;;;;;;;9.45;8.25;;;5.90;99.90;;;;;;5060152;28;20028;-55
2022/09/29 05:02:28;;;;;;;10.27;8.95;;;5.90;99.90;;;;;;5048609;28;20389;-55
2022/09/29 05:04:54;;;;;;;10.35;9.25;;;5.90;99.90;;;;;;5054822;28;20021;-56
2022/09/29 05:07:20;;;;;;;10.13;7.80;;;5.90;99.90;;;;;;5045970;28;20040;-55
2022/09/29 05:09:45;;;;;;;9.25;7.95;;;5.90;99.90;;;;;;5043855;28;20056;-55
2022/09/29 05:12:11;;;;;;;10.88;8.95;;;5.90;99.90;;;;;;5050409;28;20032;-53
2022/09/29 05:14:36;;;;;;;12.20;9.80;;;5.90;99.90;;;;;;5051358;28;20025;-53
2022/09/29 05:17:02;;;;;;;11.27;10.05;;;5.90;99.90;;;;;;5052091;28;20388;-56
2022/09/29 05:19:28;;;;;;;10.70;8.73;;;5.80;99.90;;;;;;5047487;28;20172;-53
2022/09/29 05:21:53;;;;;;;11.18;9.38;;;5.80;99.90;;;;;;5065414;28;20028;-56
2022/09/29 05:24:19;;;;;;;10.10;8.93;;;5.80;99.90;;;;;;5053923;28;20025;-55
2022/09/29 05:26:44;;;;;;;10.07;8.82;;;5.80;99.90;;;;;;5054170;28;20477;-55
2022/09/29 05:29:10;;;;;;;9.35;7.38;;;5.80;99.90;;;;;;5055358;28;20021;-56
2022/09/29 05:31:35;;;;;;;6.80;5.93;;;5.80;99.90;;;;;;5052171;28;20106;-55
2022/09/29 05:34:01;;;;;;;8.68;5.93;;;5.80;99.90;;;;;;5059143;28;20078;-56
2022/09/29 05:36:26;;;;;;;7.50;6.15;;;5.90;99.90;;;;;;5055405;28;20491;-55
2022/09/29 05:38:52;;;;;;;7.72;5.50;;;5.90;99.90;;;;;;5053784;28;20036;-55
2022/09/29 05:41:21;;;;;;;17.00;10.52;;;5.90;99.90;;;;;;5051666;28;20060;-55
2022/09/29 05:43:47;;;;;;;10.95;9.80;;;5.80;99.90;;;;;;5052943;28;20025;-55
2022/09/29 05:46:14;;;;;;;10.85;9.60;;;5.80;99.90;;;;;;5052756;28;20018;-56
2022/09/29 05:48:40;;;;;;;12.38;9.43;;;5.70;99.90;;;;;;5037067;28;20504;-54
2022/09/29 05:51:14;;;;;;;12.23;9.30;;;5.60;99.90;;;;;;5049875;28;20033;-54
2022/09/29 05:53:40;;;;;;;10.93;9.05;;;5.60;99.90;;;;;;5052503;28;20074;-56
2022/09/29 05:56:11;;;;;;;8.23;7.43;;;5.60;99.90;;;;;;5058132;28;20405;-56
2022/09/29 05:58:38;;;;;;;8.18;7.18;;;5.60;99.90;;;;;;5053294;28;20025;-56
2022/09/29 06:01:07;;;;;;;8.73;6.18;;;5.70;99.90;;;;;;5052965;28;20044;-55
2022/09/29 06:03:34;;;;;;;6.72;5.85;;;5.70;99.90;;;;;;5053300;28;20074;-56
2022/09/29 06:06:15;;;;;;;6.18;5.28;;;5.80;99.90;;;;;;5036053;28;20037;-56
2022/09/29 06:08:42;;;;;;;7.70;6.72;;;5.80;99.90;;;;;;5031512;28;20399;-56
2022/09/29 06:11:14;;;;;;;7.47;5.68;;;5.80;99.90;;;;;;5050083;28;20060;-55
2022/09/29 06:13:41;;;;;;;8.50;5.72;;;5.90;99.90;;;;;;5039105;28;20025;-55
2022/09/29 06:16:08;;;;;;;9.35;8.30;;;5.90;99.90;;;;;;5052118;28;20025;-54
2022/09/29 06:18:34;;;;;;;11.05;9.85;;;5.90;99.90;;;;;;5048549;28;20029;-55
2022/09/29 06:21:08;;;;;;;12.57;10.07;;;5.90;99.90;;;;;;5039936;28;20040;-56
2022/09/29 06:23:34;;;;;;;13.43;11.02;;;5.90;99.90;;;;;;5048161;28;20029;-56
2022/09/29 06:26:06;;;;;;;13.45;9.90;;;5.80;99.90;;;;;;5049738;28;20036;-54
2022/09/29 06:28:32;;;;;;;13.40;11.35;;;5.90;99.90;;;;;;5051265;28;20032;-56
2022/09/29 06:30:59;;;;;;;13.52;11.93;;;5.90;99.90;;;;;;5049885;28;20074;-55
2022/09/29 06:33:26;;;;;;;13.13;11.15;;;5.80;99.90;;;;;;5063190;28;20052;-54
2022/09/29 06:38:36;;;;;;;13.50;11.57;;;5.80;99.90;;;;;;5048958;28;20101;-53
2022/09/29 06:41:01;;;;;;;14.90;11.57;;;5.80;99.90;;;;;;5046514;28;20498;-54
2022/09/29 06:43:27;;;;;;;12.43;10.77;;;5.80;99.90;;;;;;5049862;28;20021;-54
2022/09/29 06:45:52;;;;;;;14.57;12.65;;;5.90;99.90;;;;;;5047042;28;20021;-55
2022/09/29 06:48:18;;;;;;;14.77;12.85;;;5.90;99.90;;;;;;5047914;28;20041;-56
2022/09/29 06:50:44;;;;;;;14.27;12.18;;;5.90;99.90;;;;;;5048721;28;20028;-54
2022/09/29 06:53:09;;;;;;;16.42;12.23;;;5.90;99.90;;;;;;5046340;28;20380;-55
2022/09/29 06:55:35;;;;;;;15.38;12.38;;;6.00;99.90;;;;;;5047378;28;20027;-54
2022/09/29 06:58:00;;;;;;;16.10;13.98;;;6.00;99.90;;;;;;5047548;28;20032;-54
2022/09/29 07:00:26;;;;;;;19.02;14.48;;;6.00;99.90;;;;;;5049088;28;20037;-55
2022/09/29 07:02:51;;;;;;;18.45;15.10;;;6.10;99.90;;;;;;5048138;28;20021;-55
2022/09/29 07:05:17;;;;;;;20.55;16.10;;;6.10;99.90;;;;;;5049348;28;20025;-57
2022/09/29 07:07:42;;;;;;;19.88;15.10;;;6.10;99.90;;;;;;5049539;28;20025;-55
2022/09/29 07:10:08;;;;;;;22.58;19.20;;;6.10;99.90;;;;;;5049713;28;20043;-55
2022/09/29 07:12:34;;;;;;;21.33;18.58;;;6.20;99.90;;;;;;5049823;28;20500;-54
2022/09/29 07:14:59;;;;;;;24.25;18.45;;;6.20;99.90;;;;;;5050525;28;20028;-55
2022/09/29 07:17:25;;;;;;;30.73;20.30;;;6.20;99.90;;;;;;5049328;28;20103;-54
2022/09/29 07:19:53;;;;;;;25.17;21.23;;;6.20;99.90;;;;;;5050794;28;20025;-55
2022/09/29 07:22:19;;;;;;;23.27;19.33;;;6.30;99.90;;;;;;5049674;28;20060;-55
2022/09/29 07:24:46;;;;;;;23.85;19.90;;;6.30;99.90;;;;;;5040187;28;20049;-55
2022/09/29 07:27:12;;;;;;;24.40;19.55;;;6.40;99.90;;;;;;5046556;28;20024;-54
2022/09/29 07:29:37;;;;;;;24.63;20.90;;;6.50;99.90;;;;;;5045987;28;20032;-55
2022/09/29 07:32:03;;;;;;;23.98;20.83;;;6.50;99.90;;;;;;5051774;28;20017;-55
2022/09/29 07:34:28;;;;;;;28.35;22.08;;;6.60;99.90;;;;;;5039106;28;20037;-53
2022/09/29 07:36:54;;;;;;;23.92;19.55;;;6.60;99.90;;;;;;5036779;28;20462;-55
2022/09/29 07:39:21;;;;;;;25.33;21.00;;;6.70;99.90;;;;;;5043234;28;20025;-55
2022/09/29 07:41:47;;;;;;;24.50;21.33;;;6.80;99.90;;;;;;5053008;28;20131;-56
2022/09/29 07:44:12;;;;;;;26.33;22.02;;;6.90;99.90;;;;;;5044827;28;20117;-55
2022/09/29 07:46:38;;;;;;;26.13;22.42;;;6.90;99.90;;;;;;5037842;28;20101;-53
2022/09/29 07:49:04;;;;;;;25.98;22.05;;;7.00;99.90;;;;;;5036822;28;20052;-55
2022/09/29 07:51:29;;;;;;;26.70;22.73;;;7.00;99.90;;;;;;5044582;28;20105;-55
2022/09/29 07:53:59;;;;;;;26.75;22.55;;;7.10;99.90;;;;;;5054991;28;20029;-56
2022/09/29 07:56:25;;;;;;;24.65;21.65;;;7.20;99.90;;;;;;5055275;28;20017;-54
2022/09/29 07:58:50;;;;;;;28.40;22.98;;;7.30;99.90;;;;;;5071273;28;20380;-54
2022/09/29 08:01:18;;;;;;;23.35;20.63;;;7.30;99.90;;;;;;5054274;28;20115;-55
2022/09/29 08:03:48;;;;;;;27.98;22.35;;;7.40;99.90;;;;;;5054017;28;20025;-55
2022/09/29 08:06:14;;;;;;;30.50;22.38;;;7.50;99.90;;;;;;5038105;28;20065;-56
2022/09/29 08:08:41;;;;;;;27.20;22.15;;;7.60;99.90;;;;;;5038304;28;20060;-55
2022/09/29 08:11:12;;;;;;;24.27;21.65;;;7.60;99.90;;;;;;5041185;28;20040;-56
2022/09/29 08:13:38;;;;;;;29.80;24.38;;;7.70;99.90;;;;;;5055342;28;20021;-55
2022/09/29 08:16:06;;;;;;;27.77;22.52;;;7.80;99.90;;;;;;5051383;28;20059;-56
2022/09/29 08:18:33;;;;;;;25.08;21.23;;;7.90;99.90;;;;;;5049306;28;20496;-56
2022/09/29 08:20:59;;;;;;;22.58;19.58;;;7.90;99.90;;;;;;5053122;28;20082;-55
2022/09/29 08:23:25;;;;;;;26.60;22.25;;;8.00;99.90;;;;;;5039993;28;20021;-56
2022/09/29 08:26:13;;;;;;;28.40;20.88;;;8.10;99.90;;;;;;5053570;28;20036;-56
2022/09/29 08:28:39;;;;;;;25.65;21.67;;;8.20;99.90;;;;;;5065063;28;20116;-55
2022/09/29 08:31:07;;;;;;;20.63;18.10;;;8.30;99.90;;;;;;5045189;28;20147;-54
2022/09/29 08:33:33;;;;;;;27.60;22.48;;;8.30;99.90;;;;;;5065579;28;20381;-56
2022/09/29 08:35:59;;;;;;;27.73;21.90;;;8.40;99.90;;;;;;5054783;28;20028;-54
2022/09/29 08:38:26;;;;;;;20.88;17.80;;;8.40;99.90;;;;;;5060932;28;20017;-54
2022/09/29 08:40:54;;;;;;;22.25;18.00;;;8.50;99.90;;;;;;5048370;28;20033;-56
2022/09/29 08:43:25;;;;;;;21.88;18.50;;;8.60;99.90;;;;;;5038375;28;20380;-54
2022/09/29 08:46:29;;;;;;;21.85;18.70;;;8.70;99.90;;;;;;5052461;28;20036;-56
2022/09/29 08:48:57;;;;;;;24.10;21.00;;;8.80;99.90;;;;;;5048155;28;20041;-55
2022/09/29 08:51:52;;;;;;;25.27;20.52;;;8.80;99.90;;;;;;5052350;28;20096;-56
2022/09/29 08:54:23;;;;;;;20.75;18.35;;;8.90;99.90;;;;;;5051333;28;20028;-55
2022/09/29 08:56:49;;;;;;;18.25;15.80;;;9.00;99.90;;;;;;5051490;28;20025;-55
2022/09/29 08:59:14;;;;;;;16.58;14.77;;;9.10;99.90;;;;;;5050311;28;20033;-56
2022/09/29 09:01:59;;;;;;;19.50;17.40;;;9.20;99.90;;;;;;5041222;28;20098;-53
2022/09/29 09:04:39;;;;;;;18.88;15.35;;;9.40;99.90;;;;;;5051450;28;20025;-56
2022/09/29 09:07:23;;;;;;;24.85;20.67;;;9.40;99.90;;;;;;5052548;28;20063;-55
2022/09/29 09:10:02;;;;;;;22.88;20.40;;;9.50;99.90;;;;;;5050201;28;20035;-54
2022/09/29 09:12:42;;;;;;;21.63;18.63;;;9.60;99.90;;;;;;5052553;28;20032;-56
2022/09/29 09:15:23;;;;;;;21.98;18.80;;;9.70;99.90;;;;;;5051501;28;20024;-55
2022/09/29 09:18:06;;;;;;;16.63;14.93;;;9.80;99.90;;;;;;5068711;28;20503;-56
2022/09/29 09:20:47;;;;;;;16.95;15.15;;;9.90;99.90;;;;;;5053388;28;20029;-56
2022/09/29 09:23:47;;;;;;;24.20;20.67;;;10.00;99.90;;;;;;5047710;28;20027;-56
2022/09/29 09:26:13;;;;;;;23.77;20.23;;;10.10;99.90;;;;;;5046502;28;20079;-56
2022/09/29 09:28:48;;;;;;;20.40;18.27;;;10.20;99.90;;;;;;5051704;28;20036;-56
2022/09/29 09:31:17;;;;;;;19.63;17.52;;;10.30;99.90;;;;;;5049078;28;20115;-56
2022/09/29 09:33:48;;;;;;;18.08;15.40;;;10.40;99.90;;;;;;5051068;28;20033;-56
2022/09/29 09:36:24;;;;;;;13.60;12.20;;;10.50;99.90;;;;;;5064729;28;20031;-55
2022/09/29 09:39:00;;;;;;;16.75;14.10;;;10.60;99.90;;;;;;5064917;28;20355;-56
2022/09/29 09:41:27;;;;;;;18.73;16.73;;;10.80;99.90;;;;;;5051841;28;20119;-56
2022/09/29 09:44:18;;;;;;;17.17;14.05;;;10.90;99.90;;;;;;5046262;28;20452;-55
2022/09/29 09:46:52;;;;;;;11.93;10.70;;;11.10;99.90;;;;;;5050835;28;20491;-56
2022/09/29 09:49:27;;;;;;;14.85;13.25;;;11.30;99.90;;;;;;5048437;28;20029;-57
2022/09/29 09:51:53;;;;;;;15.27;13.63;;;11.40;99.90;;;;;;5063996;28;20021;-56
2022/09/29 09:54:30;;;;;;;15.27;12.65;;;11.50;99.90;;;;;;5051685;28;20354;-56
2022/09/29 09:57:30;;;;;;;12.43;11.13;;;11.70;99.90;;;;;;5050430;28;20021;-56
2022/09/29 10:00:20;;;;;;;9.93;8.93;;;11.90;99.90;;;;;;5049696;28;20028;-55
2022/09/29 10:02:51;;;;;;;6.90;6.20;;;12.10;99.90;;;;;;5052507;28;20287;-56
2022/09/29 10:05:19;;;;;;;6.68;6.00;;;12.40;99.90;;;;;;5065881;28;20021;-56
2022/09/29 10:07:47;;;;;;;7.50;6.40;;;12.60;99.90;;;;;;5047510;28;20465;-55
2022/09/29 10:10:18;;;;;;;9.13;8.25;;;12.90;99.90;;;;;;5043510;28;20025;-54
2022/09/29 10:12:44;;;;;;;6.78;6.00;;;13.20;99.90;;;;;;5049971;28;20028;-56
2022/09/29 10:15:24;;;;;;;6.05;5.45;;;13.60;99.90;;;;;;5065787;28;20552;-56
2022/09/29 10:18:00;;;;;;;5.32;4.80;;;14.10;99.90;;;;;;5051828;28;20025;-56
2022/09/29 10:20:33;;;;;;;4.80;4.32;;;14.50;99.90;;;;;;5047577;28;20041;-56
2022/09/29 10:23:22;;;;;;;4.72;3.50;;;14.90;99.90;;;;;;5050742;28;20457;-56
2022/09/29 10:26:11;;;;;;;3.17;2.87;;;15.60;99.90;;;;;;5054883;28;20031;-56
2022/09/29 10:28:44;;;;;;;4.60;3.47;;;17.20;99.90;;;;;;5048953;28;20366;-56
2022/09/29 10:31:30;;;;;;;2.88;2.63;;;20.40;99.90;;;;;;5051807;28;20116;-57
2022/09/29 10:34:01;;;;;;;3.63;3.33;;;22.90;97.10;;;;;;5048313;28;20424;-57
2022/09/29 10:36:30;;;;;;;2.90;2.55;;;23.90;93.10;;;;;;5039367;28;20061;-57
2022/09/29 10:38:57;;;;;;;2.30;1.98;;;25.70;87.10;;;;;;5054808;28;20021;-57
2022/09/29 10:41:24;;;;;;;2.50;2.30;;;28.30;80.20;;;;;;5056003;28;20074;-57
2022/09/29 10:43:51;;;;;;;3.40;3.10;;;30.70;72.70;;;;;;5044508;28;20021;-57
2022/09/29 10:46:28;;;;;;;4.03;3.10;;;32.20;57.00;;;;;;5043595;28;20076;-57
2022/09/29 10:49:13;;;;;;;3.90;3.47;;;32.00;49.50;;;;;;5050921;28;20033;-57
2022/09/29 10:51:40;;;;;;;3.55;3.22;;;32.40;46.80;;;;;;5051448;28;20021;-58
2022/09/29 10:54:07;;;;;;;3.78;3.35;;;29.60;45.70;;;;;;5049056;28;20017;-57
2022/09/29 10:56:35;;;;;;;2.38;2.10;;;28.30;48.90;;;;;;5058846;28;20043;-57
2022/09/29 10:59:02;;;;;;;2.13;1.80;;;29.70;49.60;;;;;;5069817;28;20029;-57
2022/09/29 11:01:31;;;;;;;2.78;1.95;;;32.60;48.60;;;;;;5036513;28;20473;-58
2022/09/29 11:04:04;;;;;;;;;;;35.50;45.90;;;;;;5052639;28;20504;-58
2022/09/29 11:06:34;;;;;;;4.15;1.90;;;37.90;43.90;;;;;;5075604;28;19911;-57
2022/09/29 11:09:20;;;;;;;2.10;1.88;;;39.00;39.50;;;;;;5058561;28;20067;-58
2022/09/29 11:11:46;;;;;;;1.98;1.52;;;38.80;39.70;;;;;;5040962;28;20037;-58
2022/09/29 11:14:35;;;;;;;1.60;1.50;;;39.90;39.50;;;;;;5049687;28;20013;-59
2022/09/29 11:17:02;;;;;;;2.63;1.70;;;41.40;38.70;;;;;;5041202;28;20033;-58
2022/09/29 11:19:31;;;;;;;2.45;2.03;;;42.20;35.60;;;;;;5046371;28;20084;-58
2022/09/29 11:22:39;;;;;;;2.40;2.20;;;41.60;32.10;;;;;;5046063;28;20029;-58
2022/09/29 11:25:15;;;;;;;2.03;1.40;;;41.50;32.00;;;;;;5037785;28;20468;-58
2022/09/29 11:28:19;;;;;;;1.90;1.80;;;40.20;33.10;;;;;;5051966;28;20033;-58
2022/09/29 11:31:22;;;;;;;2.05;1.50;;;39.50;31.90;;;;;;5003858;28;20025;-58
2022/09/29 11:34:03;;;;;;;1.25;1.15;;;41.20;33.70;;;;;;5038801;28;20108;-58
2022/09/29 11:36:36;;;;;;;1.40;1.27;;;43.60;33.50;;;;;;5038062;28;20044;-58
2022/09/29 11:39:27;;;;;;;2.20;1.95;;;45.30;32.20;;;;;;5046366;28;20077;-58
2022/09/29 11:42:06;;;;;;;2.47;1.50;;;44.10;28.50;;;;;;5048390;28;20029;-58
2022/09/29 11:44:50;;;;;;;1.40;1.23;;;42.60;30.10;;;;;;5044826;28;20320;-58
2022/09/29 11:47:42;;;;;;;1.35;1.10;;;43.80;31.10;;;;;;5070639;28;20024;-58
2022/09/29 11:50:33;;;;;;;2.42;1.58;;;45.70;31.10;;;;;;5051831;28;20017;-58
2022/09/29 11:53:29;;;;;;;2.35;2.00;;;45.80;28.50;;;;;;5049835;28;20067;-58
2022/09/29 11:56:22;;;;;;;3.10;1.73;;;43.00;28.00;;;;;;5050727;28;20026;-58
2022/09/29 11:59:11;;;;;;;2.80;1.70;;;39.70;29.60;;;;;;5049687;28;20032;-58
2022/09/29 12:01:59;;;;;;;1.65;1.33;;;39.30;29.60;;;;;;5066563;28;20385;-58
2022/09/29 12:04:44;;;;;;;1.67;1.20;;;40.40;31.10;;;;;;5046460;28;20016;-58
2022/09/29 12:07:44;;;;;;;3.33;1.23;;;42.40;29.60;;;;;;5050959;28;20025;-57
2022/09/29 12:10:22;;;;;;;1.15;0.90;;;41.90;29.20;;;;;;5048519;28;20020;-58
2022/09/29 12:13:08;;;;;;;1.00;0.90;;;42.90;29.70;;;;;;5051490;28;20086;-58
2022/09/29 12:16:02;;;;;;;1.10;0.90;;;43.20;28.90;;;;;;5048749;28;20622;-57
2022/09/29 12:18:38;;;;;;;1.80;1.17;;;43.80;28.80;;;;;;5061015;28;20169;-57
2022/09/29 12:21:06;;;;;;;1.17;1.00;;;42.40;28.20;;;;;;5051132;28;20445;-58
2022/09/29 12:23:36;;;;;;;1.35;0.90;;;41.90;29.10;;;;;;5052791;28;20064;-57
2022/09/29 12:26:08;;;;;;;1.10;1.00;;;42.30;28.80;;;;;;5059291;28;20017;-57
2022/09/29 12:28:53;;;;;;;1.40;1.10;;;41.80;28.90;;;;;;5065979;28;20518;-58
2022/09/29 12:31:36;;;;;;;1.95;1.10;;;42.40;29.30;;;;;;5072411;28;20028;-58
2022/09/29 12:34:16;;;;;;;1.60;1.30;;;42.40;28.40;;;;;;5054292;28;20021;-56
2022/09/29 12:37:09;;;;;;;1.63;1.42;;;40.10;28.30;;;;;;5044241;28;20511;-58
2022/09/29 12:39:37;;;;;;;2.28;1.10;;;37.70;29.60;;;;;;5055263;28;20065;-57
2022/09/29 12:42:16;;;;;;;1.50;1.10;;;37.60;30.20;;;;;;5058499;28;20083;-58
2022/09/29 12:45:02;;;;;;;2.08;0.95;;;36.60;30.50;;;;;;5055193;28;20021;-56
2022/09/29 12:47:40;;;;;;;1.83;1.00;;;35.00;31.90;;;;;;5049586;28;20022;-57
2022/09/29 12:50:16;;;;;;;1.13;0.90;;;34.00;33.30;;;;;;5043990;28;20048;-57
2022/09/29 12:53:02;;;;;;;1.27;0.73;;;33.40;34.40;;;;;;5056732;28;20400;-57
2022/09/29 12:55:34;;;;;;;1.15;0.90;;;33.10;34.70;;;;;;5058677;28;20033;-57
2022/09/29 12:58:04;;;;;;;1.02;0.70;;;33.20;35.20;;;;;;5048121;28;20025;-57
2022/09/29 13:00:32;;;;;;;1.05;0.77;;;34.60;34.90;;;;;;5051543;28;20028;-56
2022/09/29 13:02:59;;;;;;;0.85;0.70;;;35.10;34.10;;;;;;5048875;28;20036;-58
2022/09/29 13:05:36;;;;;;;2.00;0.85;;;35.70;33.90;;;;;;5063775;28;20025;-57
2022/09/29 13:08:03;;;;;;;0.90;0.80;;;36.40;33.40;;;;;;5046834;28;20029;-57
2022/09/29 13:11:06;;;;;;;0.90;0.70;;;37.20;33.10;;;;;;5040251;28;20095;-57
2022/09/29 13:14:04;;;;;;;1.02;0.82;;;38.20;32.80;;;;;;5056668;28;20457;-57
2022/09/29 13:16:39;;;;;;;;;;;38.50;32.40;;;;;;5032745;28;20145;-57